sensor_id;sensor_type;location;lat;lon;timestamp;temperature;humidity
3644;DHT22;1838;50.742;7.158;2024-01-07T00:00:57;4.20;99.90
3644;DHT22;1838;50.742;7.158;2024-01-07T00:03:23;4.20;99.90
3644;DHT22;1838;50.742;7.158;2024-01-07T00:05:48;4.20;99.90
3644;DHT22;1838;50.742;7.158;2024-01-07T00:08:14;4.10;99.90
3644;DHT22;1838;50.742;7.158;2024-01-07T00:10:39;4.20;99.90
3644;DHT22;1838;50.742;7.158;2024-01-07T00:13:05;4.20;99.90
3644;DHT22;1838;50.742;7.158;2024-01-07T00:15:30;4.10;99.90
3644;DHT22;1838;50.742;7.158;2024-01-07T00:17:56;4.10;99.90
3644;DHT22;1838;50.742;7.158;2024-01-07T00:20:22;4.10;99.90
3644;DHT22;1838;50.742;7.158;2024-01-07T00:22:47;4.20;99.90
3644;DHT22;1838;50.742;7.158;2024-01-07T00:25:13;4.20;99.90
3644;DHT22;1838;50.742;7.158;2024-01-07T00:27:38;4.20;99.90
3644;DHT22;1838;50.742;7.158;2024-01-07T00:30:04;4.20;99.90
3644;DHT22;1838;50.742;7.158;2024-01-07T00:32:30;4.30;99.90
3644;DHT22;1838;50.742;7.158;2024-01-07T00:34:55;4.30;99.90
3644;DHT22;1838;50.742;7.158;2024-01-07T00:37:21;4.30;99.90
3644;DHT22;1838;50.742;7.158;2024-01-07T00:39:46;4.30;99.90
3644;DHT22;1838;50.742;7.158;2024-01-07T00:42:12;4.30;99.90
3644;DHT22;1838;50.742;7.158;2024-01-07T00:44:38;4.40;99.90
3644;DHT22;1838;50.742;7.158;2024-01-07T00:47:03;4.30;99.90
3644;DHT22;1838;50.742;7.158;2024-01-07T00:49:29;4.30;99.90
3644;DHT22;1838;50.742;7.158;2024-01-07T00:51:54;4.30;99.90
3644;DHT22;1838;50.742;7.158;2024-01-07T00:54:20;4.30;99.90
3644;DHT22;1838;50.742;7.158;2024-01-07T00:56:45;4.30;99.90
3644;DHT22;1838;50.742;7.158;2024-01-07T00:59:11;4.10;99.90
3644;DHT22;1838;50.742;7.158;2024-01-07T01:01:36;4.20;99.90
3644;DHT22;1838;50.742;7.158;2024-01-07T01:04:02;4.10;99.90
3644;DHT22;1838;50.742;7.158;2024-01-07T01:06:28;4.10;99.90
3644;DHT22;1838;50.742;7.158;2024-01-07T01:08:53;4.10;99.90
3644;DHT22;1838;50.742;7.158;2024-01-07T01:11:18;4.20;99.90
3644;DHT22;1838;50.742;7.158;2024-01-07T01:13:44;4.10;99.90
3644;DHT22;1838;50.742;7.158;2024-01-07T01:16:09;4.10;99.90
3644;DHT22;1838;50.742;7.158;2024-01-07T01:18:35;4.10;99.90
3644;DHT22;1838;50.742;7.158;2024-01-07T01:21:00;4.00;99.90
3644;DHT22;1838;50.742;7.158;2024-01-07T01:23:26;4.10;99.90
3644;DHT22;1838;50.742;7.158;2024-01-07T01:25:51;4.10;99.90
3644;DHT22;1838;50.742;7.158;2024-01-07T01:28:17;4.10;99.90
3644;DHT22;1838;50.742;7.158;2024-01-07T01:30:42;4.20;99.90
3644;DHT22;1838;50.742;7.158;2024-01-07T01:33:08;4.20;99.90
3644;DHT22;1838;50.742;7.158;2024-01-07T01:35:33;4.30;99.90
3644;DHT22;1838;50.742;7.158;2024-01-07T01:37:59;4.20;99.90
3644;DHT22;1838;50.742;7.158;2024-01-07T01:40:24;4.20;99.90
3644;DHT22;1838;50.742;7.158;2024-01-07T01:42:50;4.30;99.90
3644;DHT22;1838;50.742;7.158;2024-01-07T01:45:15;4.20;99.90
3644;DHT22;1838;50.742;7.158;2024-01-07T01:47:41;4.30;99.90
3644;DHT22;1838;50.742;7.158;2024-01-07T01:50:08;4.30;99.90
3644;DHT22;1838;50.742;7.158;2024-01-07T01:52:34;4.30;99.90
3644;DHT22;1838;50.742;7.158;2024-01-07T01:55:01;4.20;99.90
3644;DHT22;1838;50.742;7.158;2024-01-07T01:57:33;4.30;99.90
3644;DHT22;1838;50.742;7.158;2024-01-07T02:00:02;4.30;99.90
3644;DHT22;1838;50.742;7.158;2024-01-07T02:02:31;4.30;99.90
3644;DHT22;1838;50.742;7.158;2024-01-07T02:04:57;4.30;99.90
3644;DHT22;1838;50.742;7.158;2024-01-07T02:07:24;4.30;99.90
3644;DHT22;1838;50.742;7.158;2024-01-07T02:09:50;4.20;99.90
3644;DHT22;1838;50.742;7.158;2024-01-07T02:12:15;4.20;99.90
3644;DHT22;1838;50.742;7.158;2024-01-07T02:14:41;4.20;99.90
3644;DHT22;1838;50.742;7.158;2024-01-07T02:17:07;4.20;99.90
3644;DHT22;1838;50.742;7.158;2024-01-07T02:19:32;4.20;99.90
3644;DHT22;1838;50.742;7.158;2024-01-07T02:21:58;4.20;99.90
3644;DHT22;1838;50.742;7.158;2024-01-07T02:24:23;4.20;99.90
3644;DHT22;1838;50.742;7.158;2024-01-07T02:26:49;4.20;99.90
3644;DHT22;1838;50.742;7.158;2024-01-07T02:29:14;4.20;99.90
3644;DHT22;1838;50.742;7.158;2024-01-07T02:31:40;4.30;99.90
3644;DHT22;1838;50.742;7.158;2024-01-07T02:34:05;4.30;99.90
3644;DHT22;1838;50.742;7.158;2024-01-07T02:36:31;4.20;99.90
3644;DHT22;1838;50.742;7.158;2024-01-07T02:38:56;4.20;99.90
3644;DHT22;1838;50.742;7.158;2024-01-07T02:41:21;4.30;99.90
3644;DHT22;1838;50.742;7.158;2024-01-07T02:43:51;4.30;99.90
3644;DHT22;1838;50.742;7.158;2024-01-07T02:46:16;4.20;99.90
3644;DHT22;1838;50.742;7.158;2024-01-07T02:48:42;4.30;99.90
3644;DHT22;1838;50.742;7.158;2024-01-07T02:51:08;4.20;99.90
3644;DHT22;1838;50.742;7.158;2024-01-07T02:53:34;4.20;99.90
3644;DHT22;1838;50.742;7.158;2024-01-07T02:55:59;4.20;99.90
3644;DHT22;1838;50.742;7.158;2024-01-07T02:58:25;4.10;99.90
3644;DHT22;1838;50.742;7.158;2024-01-07T03:00:50;4.10;99.90
3644;DHT22;1838;50.742;7.158;2024-01-07T03:03:16;4.10;99.90
3644;DHT22;1838;50.742;7.158;2024-01-07T03:05:41;4.00;99.90
3644;DHT22;1838;50.742;7.158;2024-01-07T03:08:07;4.10;99.90
3644;DHT22;1838;50.742;7.158;2024-01-07T03:10:33;4.10;99.90
3644;DHT22;1838;50.742;7.158;2024-01-07T03:12:59;4.10;99.90
3644;DHT22;1838;50.742;7.158;2024-01-07T03:15:25;4.10;99.90
3644;DHT22;1838;50.742;7.158;2024-01-07T03:17:50;4.10;99.90
3644;DHT22;1838;50.742;7.158;2024-01-07T03:20:16;4.00;99.90
3644;DHT22;1838;50.742;7.158;2024-01-07T03:22:41;4.00;99.90
3644;DHT22;1838;50.742;7.158;2024-01-07T03:25:07;4.00;99.90
3644;DHT22;1838;50.742;7.158;2024-01-07T03:27:33;4.00;99.90
3644;DHT22;1838;50.742;7.158;2024-01-07T03:29:58;4.00;99.90
3644;DHT22;1838;50.742;7.158;2024-01-07T03:32:24;3.90;99.90
3644;DHT22;1838;50.742;7.158;2024-01-07T03:34:49;3.90;99.90
3644;DHT22;1838;50.742;7.158;2024-01-07T03:37:15;4.00;99.90
3644;DHT22;1838;50.742;7.158;2024-01-07T03:39:44;4.00;99.90
3644;DHT22;1838;50.742;7.158;2024-01-07T03:42:09;4.00;99.90
3644;DHT22;1838;50.742;7.158;2024-01-07T03:44:37;4.00;99.90
3644;DHT22;1838;50.742;7.158;2024-01-07T03:47:04;4.00;99.90
3644;DHT22;1838;50.742;7.158;2024-01-07T03:49:29;4.10;99.90
3644;DHT22;1838;50.742;7.158;2024-01-07T03:51:55;4.10;99.90
3644;DHT22;1838;50.742;7.158;2024-01-07T03:54:20;4.10;99.90
3644;DHT22;1838;50.742;7.158;2024-01-07T03:56:46;4.10;99.90
3644;DHT22;1838;50.742;7.158;2024-01-07T03:59:11;4.10;99.90
3644;DHT22;1838;50.742;7.158;2024-01-07T04:01:37;4.10;99.90
3644;DHT22;1838;50.742;7.158;2024-01-07T04:04:02;4.10;99.90
3644;DHT22;1838;50.742;7.158;2024-01-07T04:06:28;4.10;99.90
3644;DHT22;1838;50.742;7.158;2024-01-07T04:08:54;4.10;99.90
3644;DHT22;1838;50.742;7.158;2024-01-07T04:11:19;4.00;99.90
3644;DHT22;1838;50.742;7.158;2024-01-07T04:13:45;4.10;99.90
3644;DHT22;1838;50.742;7.158;2024-01-07T04:16:20;4.10;99.90
3644;DHT22;1838;50.742;7.158;2024-01-07T04:18:47;4.20;99.90
3644;DHT22;1838;50.742;7.158;2024-01-07T04:21:13;4.20;99.90
3644;DHT22;1838;50.742;7.158;2024-01-07T04:23:39;4.20;99.90
3644;DHT22;1838;50.742;7.158;2024-01-07T04:26:06;4.10;99.90
3644;DHT22;1838;50.742;7.158;2024-01-07T04:28:32;4.10;99.90
3644;DHT22;1838;50.742;7.158;2024-01-07T04:30:57;4.10;99.90
3644;DHT22;1838;50.742;7.158;2024-01-07T04:33:23;4.10;99.90
3644;DHT22;1838;50.742;7.158;2024-01-07T04:35:48;4.10;99.90
3644;DHT22;1838;50.742;7.158;2024-01-07T04:38:14;4.10;99.90
3644;DHT22;1838;50.742;7.158;2024-01-07T04:40:39;4.10;99.90
3644;DHT22;1838;50.742;7.158;2024-01-07T04:43:05;4.10;99.90
3644;DHT22;1838;50.742;7.158;2024-01-07T04:45:30;4.10;99.90
3644;DHT22;1838;50.742;7.158;2024-01-07T04:47:56;4.00;99.90
3644;DHT22;1838;50.742;7.158;2024-01-07T04:50:21;4.10;99.90
3644;DHT22;1838;50.742;7.158;2024-01-07T04:52:47;4.00;99.90
3644;DHT22;1838;50.742;7.158;2024-01-07T04:55:12;4.00;99.90
3644;DHT22;1838;50.742;7.158;2024-01-07T04:57:38;3.90;99.90
3644;DHT22;1838;50.742;7.158;2024-01-07T05:00:04;3.90;99.90
3644;DHT22;1838;50.742;7.158;2024-01-07T05:02:30;3.80;99.90
3644;DHT22;1838;50.742;7.158;2024-01-07T05:04:55;3.80;99.90
3644;DHT22;1838;50.742;7.158;2024-01-07T05:07:21;3.90;99.90
3644;DHT22;1838;50.742;7.158;2024-01-07T05:09:46;3.80;99.90
3644;DHT22;1838;50.742;7.158;2024-01-07T05:12:12;3.80;99.90
3644;DHT22;1838;50.742;7.158;2024-01-07T05:14:37;3.80;99.90
3644;DHT22;1838;50.742;7.158;2024-01-07T05:17:03;3.70;99.90
3644;DHT22;1838;50.742;7.158;2024-01-07T05:19:29;3.70;99.90
3644;DHT22;1838;50.742;7.158;2024-01-07T05:21:55;3.70;99.90
3644;DHT22;1838;50.742;7.158;2024-01-07T05:24:21;3.70;99.90
3644;DHT22;1838;50.742;7.158;2024-01-07T05:26:47;3.70;99.90
3644;DHT22;1838;50.742;7.158;2024-01-07T05:29:12;3.70;99.90
3644;DHT22;1838;50.742;7.158;2024-01-07T05:31:39;3.70;99.90
3644;DHT22;1838;50.742;7.158;2024-01-07T05:34:05;3.80;99.90
3644;DHT22;1838;50.742;7.158;2024-01-07T05:36:30;3.70;99.90
3644;DHT22;1838;50.742;7.158;2024-01-07T05:38:56;3.70;99.90
3644;DHT22;1838;50.742;7.158;2024-01-07T05:41:21;3.70;99.90
3644;DHT22;1838;50.742;7.158;2024-01-07T05:43:47;3.60;99.90
3644;DHT22;1838;50.742;7.158;2024-01-07T05:46:12;3.70;99.90
3644;DHT22;1838;50.742;7.158;2024-01-07T05:48:46;3.70;99.90
3644;DHT22;1838;50.742;7.158;2024-01-07T05:51:13;3.60;99.90
3644;DHT22;1838;50.742;7.158;2024-01-07T05:53:39;3.60;99.90
3644;DHT22;1838;50.742;7.158;2024-01-07T05:56:05;3.70;99.90
3644;DHT22;1838;50.742;7.158;2024-01-07T05:58:31;3.70;99.90
3644;DHT22;1838;50.742;7.158;2024-01-07T06:00:56;3.70;99.90
3644;DHT22;1838;50.742;7.158;2024-01-07T06:03:22;3.70;99.90
3644;DHT22;1838;50.742;7.158;2024-01-07T06:05:47;3.70;99.90
3644;DHT22;1838;50.742;7.158;2024-01-07T06:08:13;3.70;99.90
3644;DHT22;1838;50.742;7.158;2024-01-07T06:10:39;3.70;99.90
3644;DHT22;1838;50.742;7.158;2024-01-07T06:13:05;3.60;99.90
3644;DHT22;1838;50.742;7.158;2024-01-07T06:15:30;3.70;99.90
3644;DHT22;1838;50.742;7.158;2024-01-07T06:17:56;3.60;99.90
3644;DHT22;1838;50.742;7.158;2024-01-07T06:20:22;3.60;99.90
3644;DHT22;1838;50.742;7.158;2024-01-07T06:22:48;3.70;99.90
3644;DHT22;1838;50.742;7.158;2024-01-07T06:25:13;3.70;99.90
3644;DHT22;1838;50.742;7.158;2024-01-07T06:27:39;3.70;99.90
3644;DHT22;1838;50.742;7.158;2024-01-07T06:30:05;3.60;99.90
3644;DHT22;1838;50.742;7.158;2024-01-07T06:32:31;3.60;99.90
3644;DHT22;1838;50.742;7.158;2024-01-07T06:34:58;3.60;99.90
3644;DHT22;1838;50.742;7.158;2024-01-07T06:37:23;3.50;99.90
3644;DHT22;1838;50.742;7.158;2024-01-07T06:39:49;3.50;99.90
3644;DHT22;1838;50.742;7.158;2024-01-07T06:42:14;3.50;99.90
3644;DHT22;1838;50.742;7.158;2024-01-07T06:44:40;3.60;99.90
3644;DHT22;1838;50.742;7.158;2024-01-07T06:47:06;3.60;99.90
3644;DHT22;1838;50.742;7.158;2024-01-07T06:49:31;3.60;99.90
3644;DHT22;1838;50.742;7.158;2024-01-07T06:51:57;3.60;99.90
3644;DHT22;1838;50.742;7.158;2024-01-07T06:54:22;3.60;99.90
3644;DHT22;1838;50.742;7.158;2024-01-07T06:56:48;3.60;99.90
3644;DHT22;1838;50.742;7.158;2024-01-07T06:59:13;3.60;99.90
3644;DHT22;1838;50.742;7.158;2024-01-07T07:01:39;3.60;99.90
3644;DHT22;1838;50.742;7.158;2024-01-07T07:04:04;3.60;99.90
3644;DHT22;1838;50.742;7.158;2024-01-07T07:06:30;3.70;99.90
3644;DHT22;1838;50.742;7.158;2024-01-07T07:08:55;3.70;99.90
3644;DHT22;1838;50.742;7.158;2024-01-07T07:11:21;3.60;99.90
3644;DHT22;1838;50.742;7.158;2024-01-07T07:13:46;3.60;99.90
3644;DHT22;1838;50.742;7.158;2024-01-07T07:16:11;3.60;99.90
3644;DHT22;1838;50.742;7.158;2024-01-07T07:18:37;3.60;99.90
3644;DHT22;1838;50.742;7.158;2024-01-07T07:21:03;3.60;99.90
3644;DHT22;1838;50.742;7.158;2024-01-07T07:23:28;3.60;99.90
3644;DHT22;1838;50.742;7.158;2024-01-07T07:25:54;3.60;99.90
3644;DHT22;1838;50.742;7.158;2024-01-07T07:28:20;3.60;99.90
3644;DHT22;1838;50.742;7.158;2024-01-07T07:30:45;3.60;99.90
3644;DHT22;1838;50.742;7.158;2024-01-07T07:33:11;3.60;99.90
3644;DHT22;1838;50.742;7.158;2024-01-07T07:35:37;3.60;99.90
3644;DHT22;1838;50.742;7.158;2024-01-07T07:38:05;3.60;99.90
3644;DHT22;1838;50.742;7.158;2024-01-07T07:40:30;3.60;99.90
3644;DHT22;1838;50.742;7.158;2024-01-07T07:42:56;3.60;99.90
3644;DHT22;1838;50.742;7.158;2024-01-07T07:45:21;3.50;99.90
3644;DHT22;1838;50.742;7.158;2024-01-07T07:47:47;3.50;99.90
3644;DHT22;1838;50.742;7.158;2024-01-07T07:50:13;3.50;99.90
3644;DHT22;1838;50.742;7.158;2024-01-07T07:52:38;3.40;99.90
3644;DHT22;1838;50.742;7.158;2024-01-07T07:55:04;3.50;99.90
3644;DHT22;1838;50.742;7.158;2024-01-07T07:57:32;3.40;99.90
3644;DHT22;1838;50.742;7.158;2024-01-07T07:59:57;3.40;99.90
3644;DHT22;1838;50.742;7.158;2024-01-07T08:02:23;3.50;99.90
3644;DHT22;1838;50.742;7.158;2024-01-07T08:04:48;3.50;99.90
3644;DHT22;1838;50.742;7.158;2024-01-07T08:07:14;3.50;99.90
3644;DHT22;1838;50.742;7.158;2024-01-07T08:09:39;3.50;99.90
3644;DHT22;1838;50.742;7.158;2024-01-07T08:12:05;3.50;99.90
3644;DHT22;1838;50.742;7.158;2024-01-07T08:14:32;3.40;99.90
3644;DHT22;1838;50.742;7.158;2024-01-07T08:16:57;3.50;99.90
3644;DHT22;1838;50.742;7.158;2024-01-07T08:19:23;3.50;99.90
3644;DHT22;1838;50.742;7.158;2024-01-07T08:21:48;3.70;99.90
3644;DHT22;1838;50.742;7.158;2024-01-07T08:24:14;3.60;99.90
3644;DHT22;1838;50.742;7.158;2024-01-07T08:26:39;3.70;99.90
3644;DHT22;1838;50.742;7.158;2024-01-07T08:29:05;3.70;99.90
3644;DHT22;1838;50.742;7.158;2024-01-07T08:31:31;3.70;99.90
3644;DHT22;1838;50.742;7.158;2024-01-07T08:33:57;3.60;99.90
3644;DHT22;1838;50.742;7.158;2024-01-07T08:36:23;3.70;99.90
3644;DHT22;1838;50.742;7.158;2024-01-07T08:38:48;3.70;99.90
3644;DHT22;1838;50.742;7.158;2024-01-07T08:41:17;3.60;99.90
3644;DHT22;1838;50.742;7.158;2024-01-07T08:43:43;3.70;99.90
3644;DHT22;1838;50.742;7.158;2024-01-07T08:46:10;3.70;99.90
3644;DHT22;1838;50.742;7.158;2024-01-07T08:48:36;3.60;99.90
3644;DHT22;1838;50.742;7.158;2024-01-07T08:51:01;3.60;99.90
3644;DHT22;1838;50.742;7.158;2024-01-07T08:53:27;3.60;99.90
3644;DHT22;1838;50.742;7.158;2024-01-07T08:55:52;3.60;99.90
3644;DHT22;1838;50.742;7.158;2024-01-07T08:58:18;3.50;99.90
3644;DHT22;1838;50.742;7.158;2024-01-07T09:00:44;3.50;99.90
3644;DHT22;1838;50.742;7.158;2024-01-07T09:03:09;3.50;99.90
3644;DHT22;1838;50.742;7.158;2024-01-07T09:05:36;3.50;99.90
3644;DHT22;1838;50.742;7.158;2024-01-07T09:08:01;3.50;99.90
3644;DHT22;1838;50.742;7.158;2024-01-07T09:10:27;3.60;99.90
3644;DHT22;1838;50.742;7.158;2024-01-07T09:12:53;3.50;99.90
3644;DHT22;1838;50.742;7.158;2024-01-07T09:15:19;3.50;99.90
3644;DHT22;1838;50.742;7.158;2024-01-07T09:17:46;3.50;99.90
3644;DHT22;1838;50.742;7.158;2024-01-07T09:20:12;3.50;99.90
3644;DHT22;1838;50.742;7.158;2024-01-07T09:22:37;3.50;99.90
3644;DHT22;1838;50.742;7.158;2024-01-07T09:25:03;3.50;99.90
3644;DHT22;1838;50.742;7.158;2024-01-07T09:27:29;3.50;99.90
3644;DHT22;1838;50.742;7.158;2024-01-07T09:29:55;3.50;99.90
3644;DHT22;1838;50.742;7.158;2024-01-07T09:32:21;3.40;99.90
3644;DHT22;1838;50.742;7.158;2024-01-07T09:34:46;3.40;99.90
3644;DHT22;1838;50.742;7.158;2024-01-07T09:37:12;3.40;99.90
3644;DHT22;1838;50.742;7.158;2024-01-07T09:39:41;3.40;99.90
3644;DHT22;1838;50.742;7.158;2024-01-07T09:42:17;3.40;99.90
3644;DHT22;1838;50.742;7.158;2024-01-07T09:44:44;3.40;99.90
3644;DHT22;1838;50.742;7.158;2024-01-07T09:47:14;3.50;99.90
3644;DHT22;1838;50.742;7.158;2024-01-07T09:49:41;3.50;99.90
3644;DHT22;1838;50.742;7.158;2024-01-07T09:52:10;3.50;99.90
3644;DHT22;1838;50.742;7.158;2024-01-07T09:54:38;3.40;99.90
3644;DHT22;1838;50.742;7.158;2024-01-07T09:57:05;3.40;99.90
3644;DHT22;1838;50.742;7.158;2024-01-07T09:59:32;3.30;99.90
3644;DHT22;1838;50.742;7.158;2024-01-07T10:01:58;3.40;99.90
3644;DHT22;1838;50.742;7.158;2024-01-07T10:04:24;3.40;99.90
3644;DHT22;1838;50.742;7.158;2024-01-07T10:06:50;3.40;99.90
3644;DHT22;1838;50.742;7.158;2024-01-07T10:09:16;3.30;99.90
3644;DHT22;1838;50.742;7.158;2024-01-07T10:11:43;3.30;99.90
3644;DHT22;1838;50.742;7.158;2024-01-07T10:14:09;3.30;99.90
3644;DHT22;1838;50.742;7.158;2024-01-07T10:16:34;3.40;99.90
3644;DHT22;1838;50.742;7.158;2024-01-07T10:19:00;3.40;99.90
3644;DHT22;1838;50.742;7.158;2024-01-07T10:21:25;3.40;99.90
3644;DHT22;1838;50.742;7.158;2024-01-07T10:24:07;3.50;99.90
3644;DHT22;1838;50.742;7.158;2024-01-07T10:26:32;3.60;99.90
3644;DHT22;1838;50.742;7.158;2024-01-07T10:28:58;3.50;99.90
3644;DHT22;1838;50.742;7.158;2024-01-07T10:31:23;3.60;99.90
3644;DHT22;1838;50.742;7.158;2024-01-07T10:33:49;3.60;99.90
3644;DHT22;1838;50.742;7.158;2024-01-07T10:36:15;3.60;99.90
3644;DHT22;1838;50.742;7.158;2024-01-07T10:38:44;3.70;99.90
3644;DHT22;1838;50.742;7.158;2024-01-07T10:41:11;3.70;99.90
3644;DHT22;1838;50.742;7.158;2024-01-07T10:43:38;3.70;99.90
3644;DHT22;1838;50.742;7.158;2024-01-07T10:46:04;3.60;99.90
3644;DHT22;1838;50.742;7.158;2024-01-07T10:48:31;3.70;99.90
3644;DHT22;1838;50.742;7.158;2024-01-07T10:50:59;3.80;99.90
3644;DHT22;1838;50.742;7.158;2024-01-07T10:53:28;3.80;99.90
3644;DHT22;1838;50.742;7.158;2024-01-07T10:56:02;3.70;99.90
3644;DHT22;1838;50.742;7.158;2024-01-07T10:58:33;3.70;99.90
3644;DHT22;1838;50.742;7.158;2024-01-07T11:01:02;3.70;99.90
3644;DHT22;1838;50.742;7.158;2024-01-07T11:03:53;3.70;99.90
3644;DHT22;1838;50.742;7.158;2024-01-07T11:06:33;3.60;99.90
3644;DHT22;1838;50.742;7.158;2024-01-07T11:09:20;3.60;99.90
3644;DHT22;1838;50.742;7.158;2024-01-07T11:11:46;3.50;99.90
3644;DHT22;1838;50.742;7.158;2024-01-07T11:14:38;3.50;99.90
3644;DHT22;1838;50.742;7.158;2024-01-07T11:17:05;3.40;99.90
3644;DHT22;1838;50.742;7.158;2024-01-07T11:19:31;3.40;99.90
3644;DHT22;1838;50.742;7.158;2024-01-07T11:22:22;3.40;99.90
3644;DHT22;1838;50.742;7.158;2024-01-07T11:24:50;3.40;99.90
3644;DHT22;1838;50.742;7.158;2024-01-07T11:27:16;3.30;99.90
3644;DHT22;1838;50.742;7.158;2024-01-07T11:29:42;3.40;99.90
3644;DHT22;1838;50.742;7.158;2024-01-07T11:32:09;3.50;99.90
3644;DHT22;1838;50.742;7.158;2024-01-07T11:34:43;3.50;99.90
3644;DHT22;1838;50.742;7.158;2024-01-07T11:37:12;3.50;99.90
3644;DHT22;1838;50.742;7.158;2024-01-07T11:39:39;3.40;99.90
3644;DHT22;1838;50.742;7.158;2024-01-07T11:42:06;3.40;99.90
3644;DHT22;1838;50.742;7.158;2024-01-07T11:44:34;3.40;99.90
3644;DHT22;1838;50.742;7.158;2024-01-07T11:47:02;3.30;99.90
3644;DHT22;1838;50.742;7.158;2024-01-07T11:49:28;3.30;99.90
3644;DHT22;1838;50.742;7.158;2024-01-07T11:51:54;3.40;99.90
3644;DHT22;1838;50.742;7.158;2024-01-07T11:54:19;3.40;99.90
3644;DHT22;1838;50.742;7.158;2024-01-07T11:56:45;3.40;99.90
3644;DHT22;1838;50.742;7.158;2024-01-07T11:59:10;3.50;99.90
3644;DHT22;1838;50.742;7.158;2024-01-07T12:01:36;3.50;99.90
3644;DHT22;1838;50.742;7.158;2024-01-07T12:04:01;3.60;99.90
3644;DHT22;1838;50.742;7.158;2024-01-07T12:06:27;3.60;99.90
3644;DHT22;1838;50.742;7.158;2024-01-07T12:08:52;3.50;99.90
3644;DHT22;1838;50.742;7.158;2024-01-07T12:11:18;3.50;99.90
3644;DHT22;1838;50.742;7.158;2024-01-07T12:13:44;3.50;99.90
3644;DHT22;1838;50.742;7.158;2024-01-07T12:16:10;3.50;99.90
3644;DHT22;1838;50.742;7.158;2024-01-07T12:18:37;3.50;99.90
3644;DHT22;1838;50.742;7.158;2024-01-07T12:21:03;3.50;99.90
3644;DHT22;1838;50.742;7.158;2024-01-07T12:23:29;3.40;99.90
3644;DHT22;1838;50.742;7.158;2024-01-07T12:26:10;3.30;99.90
3644;DHT22;1838;50.742;7.158;2024-01-07T12:28:36;3.30;99.90
3644;DHT22;1838;50.742;7.158;2024-01-07T12:31:03;3.20;99.90
3644;DHT22;1838;50.742;7.158;2024-01-07T12:33:30;3.10;99.90
3644;DHT22;1838;50.742;7.158;2024-01-07T12:35:57;3.10;99.90
3644;DHT22;1838;50.742;7.158;2024-01-07T12:38:26;3.10;99.90
3644;DHT22;1838;50.742;7.158;2024-01-07T12:40:52;3.20;99.90
3644;DHT22;1838;50.742;7.158;2024-01-07T12:43:18;3.20;99.90
3644;DHT22;1838;50.742;7.158;2024-01-07T12:45:44;3.20;99.90
3644;DHT22;1838;50.742;7.158;2024-01-07T12:48:10;3.20;99.90
3644;DHT22;1838;50.742;7.158;2024-01-07T12:50:35;3.20;99.90
3644;DHT22;1838;50.742;7.158;2024-01-07T12:53:01;3.20;99.90
3644;DHT22;1838;50.742;7.158;2024-01-07T12:55:27;3.20;99.90
3644;DHT22;1838;50.742;7.158;2024-01-07T12:57:52;3.20;99.90
3644;DHT22;1838;50.742;7.158;2024-01-07T13:00:19;3.20;99.90
3644;DHT22;1838;50.742;7.158;2024-01-07T13:02:45;3.20;99.90
3644;DHT22;1838;50.742;7.158;2024-01-07T13:05:11;3.30;99.90
3644;DHT22;1838;50.742;7.158;2024-01-07T13:07:36;3.30;99.90
3644;DHT22;1838;50.742;7.158;2024-01-07T13:10:02;3.30;99.90
3644;DHT22;1838;50.742;7.158;2024-01-07T13:12:27;3.20;99.90
3644;DHT22;1838;50.742;7.158;2024-01-07T13:14:53;3.20;99.90
3644;DHT22;1838;50.742;7.158;2024-01-07T13:17:19;3.20;99.90
3644;DHT22;1838;50.742;7.158;2024-01-07T13:19:45;3.10;99.90
3644;DHT22;1838;50.742;7.158;2024-01-07T13:22:13;3.10;99.90
3644;DHT22;1838;50.742;7.158;2024-01-07T13:24:42;3.10;99.90
3644;DHT22;1838;50.742;7.158;2024-01-07T13:27:08;3.10;99.90
3644;DHT22;1838;50.742;7.158;2024-01-07T13:29:34;3.10;99.90
3644;DHT22;1838;50.742;7.158;2024-01-07T13:32:03;3.00;99.90
3644;DHT22;1838;50.742;7.158;2024-01-07T13:34:29;3.00;99.90
3644;DHT22;1838;50.742;7.158;2024-01-07T13:36:55;3.00;99.90
3644;DHT22;1838;50.742;7.158;2024-01-07T13:39:21;3.00;99.90
3644;DHT22;1838;50.742;7.158;2024-01-07T13:41:47;3.00;99.90
3644;DHT22;1838;50.742;7.158;2024-01-07T13:44:13;3.00;99.90
3644;DHT22;1838;50.742;7.158;2024-01-07T13:46:46;3.00;99.90
3644;DHT22;1838;50.742;7.158;2024-01-07T13:49:13;3.00;99.90
3644;DHT22;1838;50.742;7.158;2024-01-07T13:51:39;2.90;99.90
3644;DHT22;1838;50.742;7.158;2024-01-07T13:54:05;2.90;99.90
3644;DHT22;1838;50.742;7.158;2024-01-07T13:56:31;2.90;99.90
3644;DHT22;1838;50.742;7.158;2024-01-07T13:58:56;2.90;99.90
3644;DHT22;1838;50.742;7.158;2024-01-07T14:01:22;2.80;99.90
3644;DHT22;1838;50.742;7.158;2024-01-07T14:03:47;2.80;99.90
3644;DHT22;1838;50.742;7.158;2024-01-07T14:06:13;2.70;99.90
3644;DHT22;1838;50.742;7.158;2024-01-07T14:08:39;2.70;99.90
3644;DHT22;1838;50.742;7.158;2024-01-07T14:11:04;2.60;99.90
3644;DHT22;1838;50.742;7.158;2024-01-07T14:13:32;2.50;99.90
3644;DHT22;1838;50.742;7.158;2024-01-07T14:15:58;2.50;99.90
3644;DHT22;1838;50.742;7.158;2024-01-07T14:18:23;2.50;99.90
3644;DHT22;1838;50.742;7.158;2024-01-07T14:20:49;2.40;99.90
3644;DHT22;1838;50.742;7.158;2024-01-07T14:23:14;2.30;99.90
3644;DHT22;1838;50.742;7.158;2024-01-07T14:25:40;2.20;99.90
3644;DHT22;1838;50.742;7.158;2024-01-07T14:28:08;2.10;99.90
3644;DHT22;1838;50.742;7.158;2024-01-07T14:30:33;2.10;99.90
3644;DHT22;1838;50.742;7.158;2024-01-07T14:32:59;2.00;99.90
3644;DHT22;1838;50.742;7.158;2024-01-07T14:35:24;2.00;99.90
3644;DHT22;1838;50.742;7.158;2024-01-07T14:37:51;2.00;99.90
3644;DHT22;1838;50.742;7.158;2024-01-07T14:40:18;2.00;99.90
3644;DHT22;1838;50.742;7.158;2024-01-07T14:42:43;1.90;99.90
3644;DHT22;1838;50.742;7.158;2024-01-07T14:45:09;1.90;99.90
3644;DHT22;1838;50.742;7.158;2024-01-07T14:47:34;2.00;99.90
3644;DHT22;1838;50.742;7.158;2024-01-07T14:50:00;1.90;99.90
3644;DHT22;1838;50.742;7.158;2024-01-07T14:52:26;2.00;99.90
3644;DHT22;1838;50.742;7.158;2024-01-07T14:54:52;1.90;99.90
3644;DHT22;1838;50.742;7.158;2024-01-07T14:57:18;1.90;99.90
3644;DHT22;1838;50.742;7.158;2024-01-07T14:59:44;1.90;99.90
3644;DHT22;1838;50.742;7.158;2024-01-07T15:02:09;2.00;99.90
3644;DHT22;1838;50.742;7.158;2024-01-07T15:04:35;1.90;99.90
3644;DHT22;1838;50.742;7.158;2024-01-07T15:07:00;1.80;99.90
3644;DHT22;1838;50.742;7.158;2024-01-07T15:09:26;1.70;99.90
3644;DHT22;1838;50.742;7.158;2024-01-07T15:11:52;1.60;99.90
3644;DHT22;1838;50.742;7.158;2024-01-07T15:14:18;1.60;99.90
3644;DHT22;1838;50.742;7.158;2024-01-07T15:16:45;1.60;99.90
3644;DHT22;1838;50.742;7.158;2024-01-07T15:19:17;1.60;99.90
3644;DHT22;1838;50.742;7.158;2024-01-07T15:21:42;1.60;99.90
3644;DHT22;1838;50.742;7.158;2024-01-07T15:24:08;1.50;99.90
3644;DHT22;1838;50.742;7.158;2024-01-07T15:26:34;1.40;99.90
3644;DHT22;1838;50.742;7.158;2024-01-07T15:29:01;1.30;99.90
3644;DHT22;1838;50.742;7.158;2024-01-07T15:31:27;1.30;99.90
3644;DHT22;1838;50.742;7.158;2024-01-07T15:33:53;1.20;99.90
3644;DHT22;1838;50.742;7.158;2024-01-07T15:36:18;1.30;99.90
3644;DHT22;1838;50.742;7.158;2024-01-07T15:38:44;1.40;99.90
3644;DHT22;1838;50.742;7.158;2024-01-07T15:41:09;1.50;99.90
3644;DHT22;1838;50.742;7.158;2024-01-07T15:43:35;1.40;99.90
3644;DHT22;1838;50.742;7.158;2024-01-07T15:46:00;1.30;99.90
3644;DHT22;1838;50.742;7.158;2024-01-07T15:48:26;1.30;99.90
3644;DHT22;1838;50.742;7.158;2024-01-07T15:50:51;1.20;99.90
3644;DHT22;1838;50.742;7.158;2024-01-07T15:53:17;1.20;99.90
3644;DHT22;1838;50.742;7.158;2024-01-07T15:55:42;1.10;99.90
3644;DHT22;1838;50.742;7.158;2024-01-07T15:58:08;1.10;99.90
3644;DHT22;1838;50.742;7.158;2024-01-07T16:00:33;1.00;99.90
3644;DHT22;1838;50.742;7.158;2024-01-07T16:02:59;0.90;99.90
3644;DHT22;1838;50.742;7.158;2024-01-07T16:05:25;0.90;99.90
3644;DHT22;1838;50.742;7.158;2024-01-07T16:07:51;1.00;99.90
3644;DHT22;1838;50.742;7.158;2024-01-07T16:10:17;1.00;99.90